^^
Station Historical Data
Daily Summary for May 8, 2017 Units:  English    Metric   Both
« Previous Day
Next Day »
Daily Weekly Monthly Yearly Custom
  High: Low: Average:
Temperature: 55.0 °F 39.9 °F 47.8 °F
Dew Point: 38.2 °F 31.5 °F 34.9 °F
Humidity: 87% 42% 62%
Wind Speed: 6.0mph 0.0mph 1.8mph
Wind Gust: 17.0mph - -
Wind- - WSW
Pressure: 29.95 in 29.79 in -
Precipitation: 0.00 in    
Historical Graphs
 
 
Tabular Data for May 8, 2017
Time Temperature Dew Point Pressure Wind Wind Speed Wind Gust Humidity Rainfall Rate (Hourly) Conditions
00:00 45.5 °F 38.0 °F 29.79 in SW 5.0 mph 14.0 mph 75% 0.00 in RA
00:15 45.3 °F 37.5 °F 29.79 in NW 5.0 mph 9.0 mph 74% 0.00 in BKN
00:30 45.1 °F 37.6 °F 29.79 in West 2.0 mph 8.0 mph 75% 0.00 in BKN
00:45 44.8 °F 37.4 °F 29.80 in Calm   6.0 mph 75% 0.00 in BKN
01:00 44.4 °F 37.3 °F 29.80 in SSE 1.0 mph 6.0 mph 76% 0.00 in BKN
02:15 43.7 °F 37.0 °F 29.82 in SW 2.0 mph 12.0 mph 77% 0.00 in FEW
02:30 43.5 °F 36.8 °F 29.82 in SSW 2.0 mph 12.0 mph 77% 0.00 in FEW
02:45 43.3 °F 36.6 °F 29.82 in SSW 2.0 mph 8.0 mph 77% 0.00 in FEW
03:00 43.2 °F 36.5 °F 29.82 in WSW 3.0 mph 7.0 mph 77% 0.00 in FEW
03:15 42.8 °F 37.1 °F 29.83 in SW 1.0 mph 6.0 mph 80% 0.00 in FEW
03:30 42.4 °F 37.6 °F 29.83 in SW 2.0 mph 6.0 mph 83% 0.00 in FEW
03:45 42.0 °F 37.5 °F 29.83 in SW 3.0 mph 7.0 mph 84% 0.00 in FEW
04:00 42.2 °F 36.5 °F 29.83 in SSW 3.0 mph 7.0 mph 80% 0.00 in FEW
04:15 42.0 °F 36.0 °F 29.83 in SW 1.0 mph 4.0 mph 79% 0.00 in CLR
04:30 41.9 °F 35.9 °F 29.83 in SSE 1.0 mph 6.0 mph 79% 0.00 in CLR
04:45 42.3 °F 35.6 °F 29.84 in SSW 1.0 mph 10.0 mph 77% 0.00 in CLR
05:00 42.1 °F 35.8 °F 29.84 in South 2.0 mph 5.0 mph 78% 0.00 in CLR
05:15 41.7 °F 36.0 °F 29.84 in SW 2.0 mph 6.0 mph 80% 0.00 in FEW
05:30 41.2 °F 36.1 °F 29.84 in Calm   3.0 mph 82% 0.00 in FEW
05:45 40.7 °F 36.2 °F 29.84 in Calm   5.0 mph 84% 0.00 in FEW
06:00 40.5 °F 35.8 °F 29.85 in Calm   4.0 mph 83% 0.00 in FEW
06:15 40.1 °F 36.2 °F 29.85 in Calm   2.0 mph 86% 0.00 in CLR
06:30 39.9 °F 36.3 °F 29.86 in Calm   2.0 mph 87% 0.00 in CLR
06:45 39.9 °F 36.3 °F 29.86 in South 1.0 mph 3.0 mph 87% 0.00 in CLR
07:00 40.1 °F 36.3 °F 29.87 in SSW 3.0 mph 6.0 mph 86% 0.00 in CLR
07:15 40.9 °F 36.7 °F 29.87 in SSW 2.0 mph 6.0 mph 85% 0.00 in FEW
07:30 42.0 °F 36.9 °F 29.87 in WSW 2.0 mph 8.0 mph 82% 0.00 in FEW
07:45 42.8 °F 36.4 °F 29.87 in SSW 2.0 mph 8.0 mph 78% 0.00 in FEW
08:00 44.2 °F 37.4 °F 29.88 in SSW 1.0 mph 9.0 mph 77% 0.00 in FEW
08:15 45.5 °F 37.0 °F 29.88 in WSW 5.0 mph 9.0 mph 72% 0.00 in FEW
08:30 45.2 °F 34.9 °F 29.88 in ESE 3.0 mph 17.0 mph 67% 0.00 in FEW
08:45 45.5 °F 34.0 °F 29.88 in SW 5.0 mph 10.0 mph 64% 0.00 in FEW
09:00 46.3 °F 34.4 °F 29.88 in NW 1.0 mph 9.0 mph 63% 0.00 in FEW
09:15 47.5 °F 34.3 °F 29.88 in WNW 2.0 mph 13.0 mph 60% 0.00 in BKN
09:30 48.1 °F 34.0 °F 29.88 in ENE 5.0 mph 12.0 mph 58% 0.00 in BKN
09:45 48.0 °F 33.0 °F 29.89 in West 5.0 mph 12.0 mph 56% 0.00 in BKN
10:15 47.3 °F 31.5 °F 29.89 in NNW 6.0 mph 13.0 mph 54% 0.00 in SCT
10:30 49.0 °F 33.5 °F 29.89 in NW 5.0 mph 12.0 mph 55% 0.00 in SCT
10:45 49.4 °F 32.5 °F 29.90 in WNW 3.0 mph 13.0 mph 52% 0.00 in SCT
11:00 50.2 °F 32.8 °F 29.90 in NE 3.0 mph 16.0 mph 51% 0.00 in SCT
11:15 49.7 °F 32.3 °F 29.90 in WNW 3.0 mph 12.0 mph 51% 0.00 in SCT
11:30 49.3 °F 32.9 °F 29.90 in West 3.0 mph 15.0 mph 53% 0.00 in SCT
11:45 50.3 °F 33.8 °F 29.90 in NNE 2.0 mph 10.0 mph 53% 0.00 in SCT
12:00 50.7 °F 32.7 °F 29.90 in WNW 6.0 mph 12.0 mph 50% 0.00 in SCT
12:15 51.1 °F 33.6 °F 29.90 in West 3.0 mph 10.0 mph 51% 0.00 in SCT
12:30 51.1 °F 32.6 °F 29.89 in WSW 3.0 mph 12.0 mph 49% 0.00 in SCT
12:45 50.9 °F 33.4 °F 29.89 in WNW 1.0 mph 12.0 mph 51% 0.00 in SCT
13:00 52.5 °F 33.3 °F 29.89 in West 3.0 mph 15.0 mph 48% 0.00 in SCT
13:15 53.1 °F 33.4 °F 29.89 in WSW 6.0 mph 15.0 mph 47% 0.00 in SCT
13:30 53.6 °F 33.3 °F 29.88 in SSE 3.0 mph 9.0 mph 46% 0.00 in SCT
13:45 52.5 °F 32.8 °F 29.88 in WSW 3.0 mph 12.0 mph 47% 0.00 in SCT
14:00 52.3 °F 33.7 °F 29.88 in WNW 2.0 mph 12.0 mph 49% 0.00 in SCT
14:15 52.2 °F 32.6 °F 29.88 in NW 3.0 mph 8.0 mph 47% 0.00 in SCT
14:30 52.6 °F 33.5 °F 29.89 in North 2.0 mph 12.0 mph 48% 0.00 in SCT
14:45 52.8 °F 33.1 °F 29.89 in NNW 3.0 mph 12.0 mph 47% 0.00 in SCT
15:00 53.4 °F 33.1 °F 29.88 in NW 3.0 mph 13.0 mph 46% 0.00 in SCT
15:15 53.9 °F 33.6 °F 29.88 in NNW 3.0 mph 9.0 mph 46% 0.00 in BKN
15:30 54.2 °F 33.3 °F 29.88 in NW 3.0 mph 12.0 mph 45% 0.00 in BKN
15:45 53.2 °F 32.9 °F 29.88 in North 2.0 mph 12.0 mph 46% 0.00 in BKN
16:00 53.7 °F 33.9 °F 29.88 in NW 1.0 mph 5.0 mph 47% 0.00 in BKN
16:15 52.7 °F 33.5 °F 29.88 in Calm   8.0 mph 48% 0.00 in BKN
16:30 53.4 °F 33.1 °F 29.88 in NNW 2.0 mph 6.0 mph 46% 0.00 in BKN
16:45 52.7 °F 32.5 °F 29.88 in Calm   5.0 mph 46% 0.00 in BKN
17:00 52.8 °F 33.6 °F 29.89 in NW 2.0 mph 5.0 mph 48% 0.00 in BKN
17:15 53.3 °F 32.0 °F 29.89 in SW 1.0 mph 4.0 mph 44% 0.00 in BKN
17:30 55.0 °F 32.3 °F 29.89 in NW 2.0 mph 6.0 mph 42% 0.00 in BKN
17:45 54.2 °F 32.7 °F 29.89 in North 1.0 mph 6.0 mph 44% 0.00 in BKN
18:00 53.5 °F 32.7 °F 29.90 in Calm   4.0 mph 45% 0.00 in BKN
18:15 53.5 °F 32.6 °F 29.90 in NW 1.0 mph 6.0 mph 45% 0.00 in BKN
18:30 53.6 °F 32.7 °F 29.90 in Calm   5.0 mph 45% 0.00 in BKN
18:45 54.0 °F 32.0 °F 29.90 in West 1.0 mph 3.0 mph 43% 0.00 in BKN
19:00 55.0 °F 32.9 °F 29.90 in Calm   3.0 mph 43% 0.00 in BKN
19:15 53.7 °F 32.9 °F 29.91 in Calm   2.0 mph 45% 0.00 in BKN
19:30 53.0 °F 33.9 °F 29.91 in Calm   1.0 mph 48% 0.00 in BKN
19:45 51.3 °F 34.2 °F 29.91 in Calm     52% 0.00 in BKN
20:15 48.1 °F 34.5 °F 29.91 in Calm     59% 0.00 in SCT
20:30 48.2 °F 35.8 °F 29.92 in Calm   2.0 mph 62% 0.00 in SCT
20:45 48.0 °F 36.0 °F 29.92 in Calm     63% 0.00 in SCT
21:00 47.5 °F 37.1 °F 29.92 in Calm     67% 0.00 in SCT
21:15 47.4 °F 38.1 °F 29.92 in Calm     70% 0.00 in BKN
21:30 47.5 °F 38.2 °F 29.93 in Calm     70% 0.00 in BKN
21:45 47.9 °F 36.7 °F 29.93 in NE 1.0 mph 4.0 mph 65% 0.00 in BKN
22:00 47.6 °F 36.8 °F 29.93 in Calm   2.0 mph 66% 0.00 in BKN
22:15 47.2 °F 36.4 °F 29.94 in Calm     66% 0.00 in BKN
22:30 46.8 °F 36.8 °F 29.94 in Calm     68% 0.00 in BKN
22:45 46.7 °F 36.7 °F 29.94 in Calm   1.0 mph 68% 0.00 in BKN
23:00 46.8 °F 37.2 °F 29.94 in Calm   1.0 mph 69% 0.00 in BKN
23:15 46.7 °F 36.3 °F 29.94 in Calm   1.0 mph 67% 0.00 in BKN
23:30 46.4 °F 36.0 °F 29.95 in Calm     67% 0.00 in BKN
23:45 45.8 °F 35.5 °F 29.95 in Calm     67% 0.00 in BKN
TarryTown NY Weather
Compliments of Weather Underground - 1.5 mb